sensor_id;sensor_type;location;lat;lon;timestamp;pressure;altitude;pressure_sealevel;temperature;humidity
65013;BME280;51715;39.432;-77.518;2024-01-30T00:02:23;99753.96;;;3.93;41.23
65013;BME280;51715;39.432;-77.518;2024-01-30T00:04:52;99757.10;;;4.61;40.33
65013;BME280;51715;39.432;-77.518;2024-01-30T00:07:21;99763.09;;;5.12;39.08
65013;BME280;51715;39.432;-77.518;2024-01-30T00:09:49;99765.97;;;5.59;38.65
65013;BME280;51715;39.432;-77.518;2024-01-30T00:12:18;99772.96;;;5.74;37.77
65013;BME280;51715;39.432;-77.518;2024-01-30T00:14:47;99773.19;;;6.31;37.15
65013;BME280;51715;39.432;-77.518;2024-01-30T00:17:16;99774.61;;;6.56;36.71
65013;BME280;51715;39.432;-77.518;2024-01-30T00:19:45;99779.10;;;6.77;36.50
65013;BME280;51715;39.432;-77.518;2024-01-30T00:22:16;99775.89;;;6.88;36.26
65013;BME280;51715;39.432;-77.518;2024-01-30T00:24:43;99785.34;;;6.90;36.37
65013;BME280;51715;39.432;-77.518;2024-01-30T00:27:11;99787.78;;;6.83;36.31
65013;BME280;51715;39.432;-77.518;2024-01-30T00:29:40;99787.64;;;6.57;36.49
65013;BME280;51715;39.432;-77.518;2024-01-30T00:32:08;99788.27;;;6.78;35.92
65013;BME280;51715;39.432;-77.518;2024-01-30T00:34:36;99785.05;;;6.99;35.76
65013;BME280;51715;39.432;-77.518;2024-01-30T00:37:08;99786.38;;;6.00;37.03
65013;BME280;51715;39.432;-77.518;2024-01-30T00:39:36;99790.83;;;6.59;36.67
65013;BME280;51715;39.432;-77.518;2024-01-30T00:42:06;99790.75;;;6.23;37.12
65013;BME280;51715;39.432;-77.518;2024-01-30T00:44:36;99792.97;;;6.54;36.62
65013;BME280;51715;39.432;-77.518;2024-01-30T00:47:05;99799.29;;;6.53;36.69
65013;BME280;51715;39.432;-77.518;2024-01-30T00:49:34;99806.71;;;6.67;36.58
65013;BME280;51715;39.432;-77.518;2024-01-30T00:52:02;99806.83;;;5.76;38.16
65013;BME280;51715;39.432;-77.518;2024-01-30T00:54:30;99811.28;;;6.08;38.19
65013;BME280;51715;39.432;-77.518;2024-01-30T00:56:58;99818.14;;;6.37;37.49
65013;BME280;51715;39.432;-77.518;2024-01-30T00:59:26;99822.59;;;6.48;36.89
65013;BME280;51715;39.432;-77.518;2024-01-30T01:01:57;99826.96;;;6.95;36.69
65013;BME280;51715;39.432;-77.518;2024-01-30T01:04:26;99834.64;;;6.83;36.02
65013;BME280;51715;39.432;-77.518;2024-01-30T01:07:02;99835.35;;;7.01;36.24
65013;BME280;51715;39.432;-77.518;2024-01-30T01:09:33;99834.91;;;5.95;37.32
65013;BME280;51715;39.432;-77.518;2024-01-30T01:12:03;99831.20;;;6.24;36.71
65013;BME280;51715;39.432;-77.518;2024-01-30T01:14:34;99832.24;;;6.89;36.19
65013;BME280;51715;39.432;-77.518;2024-01-30T01:17:03;99835.09;;;7.24;35.89
65013;BME280;51715;39.432;-77.518;2024-01-30T01:19:32;99834.34;;;6.68;35.77
65013;BME280;51715;39.432;-77.518;2024-01-30T01:22:02;99833.49;;;6.76;35.81
65013;BME280;51715;39.432;-77.518;2024-01-30T01:24:32;99833.79;;;6.98;35.93
65013;BME280;51715;39.432;-77.518;2024-01-30T01:27:00;99836.36;;;6.83;36.17
65013;BME280;51715;39.432;-77.518;2024-01-30T01:29:31;99834.41;;;6.18;36.92
65013;BME280;51715;39.432;-77.518;2024-01-30T01:31:59;99836.08;;;5.85;37.68
65013;BME280;51715;39.432;-77.518;2024-01-30T01:34:28;99845.30;;;5.83;37.52
65013;BME280;51715;39.432;-77.518;2024-01-30T01:36:58;99850.91;;;6.22;37.19
65013;BME280;51715;39.432;-77.518;2024-01-30T01:39:28;99857.76;;;5.38;38.43
65013;BME280;51715;39.432;-77.518;2024-01-30T01:41:59;99862.10;;;5.55;38.29
65013;BME280;51715;39.432;-77.518;2024-01-30T01:44:30;99864.23;;;5.72;37.74
65013;BME280;51715;39.432;-77.518;2024-01-30T01:46:58;99867.98;;;6.08;37.64
65013;BME280;51715;39.432;-77.518;2024-01-30T01:49:30;99869.97;;;6.55;36.96
65013;BME280;51715;39.432;-77.518;2024-01-30T01:51:59;99871.49;;;6.37;37.09
65013;BME280;51715;39.432;-77.518;2024-01-30T01:54:31;99875.60;;;5.45;38.69
65013;BME280;51715;39.432;-77.518;2024-01-30T01:57:01;99877.99;;;4.98;39.89
65013;BME280;51715;39.432;-77.518;2024-01-30T01:59:30;99874.91;;;5.33;39.09
65013;BME280;51715;39.432;-77.518;2024-01-30T02:01:59;99878.21;;;5.77;38.03
65013;BME280;51715;39.432;-77.518;2024-01-30T02:04:28;99883.87;;;4.73;39.42
65013;BME280;51715;39.432;-77.518;2024-01-30T02:06:57;99882.79;;;5.65;38.61
65013;BME280;51715;39.432;-77.518;2024-01-30T02:09:26;99883.86;;;5.17;38.75
65013;BME280;51715;39.432;-77.518;2024-01-30T02:11:57;99882.54;;;5.60;38.11
65013;BME280;51715;39.432;-77.518;2024-01-30T02:14:25;99884.99;;;5.54;38.18
65013;BME280;51715;39.432;-77.518;2024-01-30T02:16:54;99882.05;;;5.69;37.97
65013;BME280;51715;39.432;-77.518;2024-01-30T02:19:22;99882.33;;;5.86;37.69
65013;BME280;51715;39.432;-77.518;2024-01-30T02:21:51;99878.72;;;6.08;37.47
65013;BME280;51715;39.432;-77.518;2024-01-30T02:24:19;99882.75;;;6.04;37.52
65013;BME280;51715;39.432;-77.518;2024-01-30T02:26:49;99885.28;;;5.63;38.14
65013;BME280;51715;39.432;-77.518;2024-01-30T02:29:18;99888.80;;;5.73;37.77
65013;BME280;51715;39.432;-77.518;2024-01-30T02:31:48;99888.79;;;5.49;37.96
65013;BME280;51715;39.432;-77.518;2024-01-30T02:34:16;99890.33;;;5.60;37.63
65013;BME280;51715;39.432;-77.518;2024-01-30T02:36:47;99892.62;;;5.92;37.80
65013;BME280;51715;39.432;-77.518;2024-01-30T02:39:16;99898.01;;;4.51;40.23
65013;BME280;51715;39.432;-77.518;2024-01-30T02:41:44;99902.79;;;5.50;38.79
65013;BME280;51715;39.432;-77.518;2024-01-30T02:44:13;99903.79;;;6.20;37.86
65013;BME280;51715;39.432;-77.518;2024-01-30T02:46:41;99903.62;;;6.23;37.55
65013;BME280;51715;39.432;-77.518;2024-01-30T02:49:09;99908.29;;;6.13;37.49
65013;BME280;51715;39.432;-77.518;2024-01-30T02:51:39;99915.72;;;4.64;40.28
65013;BME280;51715;39.432;-77.518;2024-01-30T02:54:07;99920.87;;;4.00;41.87
65013;BME280;51715;39.432;-77.518;2024-01-30T02:56:40;99919.80;;;4.38;40.46
65013;BME280;51715;39.432;-77.518;2024-01-30T02:59:08;99922.53;;;5.45;38.92
65013;BME280;51715;39.432;-77.518;2024-01-30T03:01:43;99923.05;;;4.53;40.43
65013;BME280;51715;39.432;-77.518;2024-01-30T03:04:12;99922.53;;;4.65;40.33
65013;BME280;51715;39.432;-77.518;2024-01-30T03:06:46;99924.37;;;5.36;39.45
65013;BME280;51715;39.432;-77.518;2024-01-30T03:09:17;99917.65;;;5.65;38.19
65013;BME280;51715;39.432;-77.518;2024-01-30T03:11:45;99914.40;;;6.46;37.25
65013;BME280;51715;39.432;-77.518;2024-01-30T03:14:14;99911.55;;;6.49;36.62
65013;BME280;51715;39.432;-77.518;2024-01-30T03:16:44;99912.85;;;6.06;37.33
65013;BME280;51715;39.432;-77.518;2024-01-30T03:19:13;99916.29;;;6.30;36.68
65013;BME280;51715;39.432;-77.518;2024-01-30T03:21:46;99917.92;;;7.07;36.42
65013;BME280;51715;39.432;-77.518;2024-01-30T03:24:16;99918.54;;;7.09;36.33
65013;BME280;51715;39.432;-77.518;2024-01-30T03:26:45;99918.80;;;6.88;36.09
65013;BME280;51715;39.432;-77.518;2024-01-30T03:29:15;99919.94;;;7.06;36.06
65013;BME280;51715;39.432;-77.518;2024-01-30T03:31:43;99919.74;;;6.65;36.80
65013;BME280;51715;39.432;-77.518;2024-01-30T03:34:11;99915.08;;;7.21;35.87
65013;BME280;51715;39.432;-77.518;2024-01-30T03:36:39;99914.57;;;7.36;35.16
65013;BME280;51715;39.432;-77.518;2024-01-30T03:39:09;99914.05;;;7.08;35.59
65013;BME280;51715;39.432;-77.518;2024-01-30T03:41:37;99913.94;;;6.32;37.31
65013;BME280;51715;39.432;-77.518;2024-01-30T03:44:07;99913.35;;;6.54;36.51
65013;BME280;51715;39.432;-77.518;2024-01-30T03:46:36;99914.22;;;6.37;36.72
65013;BME280;51715;39.432;-77.518;2024-01-30T03:49:04;99918.53;;;6.54;36.34
65013;BME280;51715;39.432;-77.518;2024-01-30T03:51:33;99918.30;;;5.65;37.77
65013;BME280;51715;39.432;-77.518;2024-01-30T03:54:02;99923.69;;;6.30;36.75
65013;BME280;51715;39.432;-77.518;2024-01-30T03:56:30;99926.19;;;6.99;36.20
65013;BME280;51715;39.432;-77.518;2024-01-30T03:59:00;99928.66;;;7.15;35.78
65013;BME280;51715;39.432;-77.518;2024-01-30T04:01:28;99927.83;;;6.97;36.11
65013;BME280;51715;39.432;-77.518;2024-01-30T04:03:57;99928.35;;;7.68;34.91
65013;BME280;51715;39.432;-77.518;2024-01-30T04:06:26;99926.53;;;7.68;34.62
65013;BME280;51715;39.432;-77.518;2024-01-30T04:08:54;99929.83;;;7.12;35.30
65013;BME280;51715;39.432;-77.518;2024-01-30T04:11:22;99932.64;;;6.27;35.67
65013;BME280;51715;39.432;-77.518;2024-01-30T04:13:50;99939.23;;;6.86;35.60
65013;BME280;51715;39.432;-77.518;2024-01-30T04:16:21;99942.01;;;7.37;34.95
65013;BME280;51715;39.432;-77.518;2024-01-30T04:18:54;99943.10;;;7.30;34.77
65013;BME280;51715;39.432;-77.518;2024-01-30T04:21:22;99945.59;;;7.08;35.07
65013;BME280;51715;39.432;-77.518;2024-01-30T04:23:52;99944.68;;;7.63;34.43
65013;BME280;51715;39.432;-77.518;2024-01-30T04:26:21;99944.17;;;7.36;34.79
65013;BME280;51715;39.432;-77.518;2024-01-30T04:28:49;99945.46;;;7.26;34.24
65013;BME280;51715;39.432;-77.518;2024-01-30T04:31:18;99943.51;;;7.72;34.18
65013;BME280;51715;39.432;-77.518;2024-01-30T04:33:47;99946.15;;;6.06;36.83
65013;BME280;51715;39.432;-77.518;2024-01-30T04:36:18;99947.14;;;6.33;36.71
65013;BME280;51715;39.432;-77.518;2024-01-30T04:38:46;99945.68;;;7.05;35.63
65013;BME280;51715;39.432;-77.518;2024-01-30T04:41:15;99945.00;;;7.19;35.21
65013;BME280;51715;39.432;-77.518;2024-01-30T04:43:43;99946.35;;;6.79;35.08
65013;BME280;51715;39.432;-77.518;2024-01-30T04:46:11;99941.47;;;7.47;34.98
65013;BME280;51715;39.432;-77.518;2024-01-30T04:48:39;99938.91;;;7.36;34.82
65013;BME280;51715;39.432;-77.518;2024-01-30T04:51:07;99936.02;;;7.54;34.66
65013;BME280;51715;39.432;-77.518;2024-01-30T04:53:35;99931.75;;;7.65;34.39
65013;BME280;51715;39.432;-77.518;2024-01-30T04:56:06;99937.51;;;7.75;34.47
65013;BME280;51715;39.432;-77.518;2024-01-30T04:58:37;99939.78;;;7.45;34.52
65013;BME280;51715;39.432;-77.518;2024-01-30T05:04:03;99943.50;;;6.90;34.54
65013;BME280;51715;39.432;-77.518;2024-01-30T05:06:31;99948.18;;;6.49;34.68
65013;BME280;51715;39.432;-77.518;2024-01-30T05:09:00;99945.97;;;7.00;34.23
65013;BME280;51715;39.432;-77.518;2024-01-30T05:11:28;99949.87;;;7.14;34.20
65013;BME280;51715;39.432;-77.518;2024-01-30T05:13:56;99947.43;;;7.75;33.99
65013;BME280;51715;39.432;-77.518;2024-01-30T05:16:25;99945.92;;;7.72;33.98
65013;BME280;51715;39.432;-77.518;2024-01-30T05:18:52;99948.18;;;7.11;34.09
65013;BME280;51715;39.432;-77.518;2024-01-30T05:21:21;99952.49;;;7.37;34.37
65013;BME280;51715;39.432;-77.518;2024-01-30T05:23:50;99957.99;;;7.10;35.02
65013;BME280;51715;39.432;-77.518;2024-01-30T05:26:19;99957.69;;;6.67;35.45
65013;BME280;51715;39.432;-77.518;2024-01-30T05:28:48;99956.00;;;6.97;35.04
65013;BME280;51715;39.432;-77.518;2024-01-30T05:31:16;99949.89;;;7.09;34.80
65013;BME280;51715;39.432;-77.518;2024-01-30T05:33:45;99951.65;;;7.54;34.28
65013;BME280;51715;39.432;-77.518;2024-01-30T05:36:13;99954.88;;;7.71;33.89
65013;BME280;51715;39.432;-77.518;2024-01-30T05:38:41;99959.89;;;7.81;33.86
65013;BME280;51715;39.432;-77.518;2024-01-30T05:41:09;99961.09;;;7.58;34.27
65013;BME280;51715;39.432;-77.518;2024-01-30T05:43:37;99966.99;;;6.67;35.21
65013;BME280;51715;39.432;-77.518;2024-01-30T05:46:06;99967.94;;;7.22;34.70
65013;BME280;51715;39.432;-77.518;2024-01-30T05:48:34;99962.08;;;7.42;34.30
65013;BME280;51715;39.432;-77.518;2024-01-30T05:51:03;99959.68;;;7.56;34.25
65013;BME280;51715;39.432;-77.518;2024-01-30T05:53:30;99957.55;;;7.27;34.28
65013;BME280;51715;39.432;-77.518;2024-01-30T05:55:59;99968.29;;;7.46;34.09
65013;BME280;51715;39.432;-77.518;2024-01-30T05:58:34;99969.66;;;7.77;33.88
65013;BME280;51715;39.432;-77.518;2024-01-30T06:01:02;99965.29;;;7.36;34.67
65013;BME280;51715;39.432;-77.518;2024-01-30T06:03:32;99963.41;;;7.43;34.29
65013;BME280;51715;39.432;-77.518;2024-01-30T06:06:01;99961.87;;;7.79;33.99
65013;BME280;51715;39.432;-77.518;2024-01-30T06:08:29;99962.29;;;7.95;33.73
65013;BME280;51715;39.432;-77.518;2024-01-30T06:10:57;99965.63;;;7.74;34.17
65013;BME280;51715;39.432;-77.518;2024-01-30T06:13:26;99970.50;;;7.81;33.93
65013;BME280;51715;39.432;-77.518;2024-01-30T06:15:54;99974.76;;;8.09;33.95
65013;BME280;51715;39.432;-77.518;2024-01-30T06:18:22;99980.44;;;7.92;33.66
65013;BME280;51715;39.432;-77.518;2024-01-30T06:20:50;99985.15;;;8.06;33.67
65013;BME280;51715;39.432;-77.518;2024-01-30T06:23:18;99980.56;;;7.93;33.42
65013;BME280;51715;39.432;-77.518;2024-01-30T06:25:46;99979.11;;;8.05;33.40
65013;BME280;51715;39.432;-77.518;2024-01-30T06:28:18;99978.34;;;7.77;33.47
65013;BME280;51715;39.432;-77.518;2024-01-30T06:30:46;99979.68;;;7.78;33.51
65013;BME280;51715;39.432;-77.518;2024-01-30T06:33:14;99981.44;;;8.03;33.18
65013;BME280;51715;39.432;-77.518;2024-01-30T06:35:44;99984.29;;;8.31;33.41
65013;BME280;51715;39.432;-77.518;2024-01-30T06:38:14;99983.46;;;7.84;33.56
65013;BME280;51715;39.432;-77.518;2024-01-30T06:40:42;99984.21;;;8.08;33.97
65013;BME280;51715;39.432;-77.518;2024-01-30T06:43:10;99983.03;;;8.42;34.02
65013;BME280;51715;39.432;-77.518;2024-01-30T06:45:40;99979.99;;;7.78;33.66
65013;BME280;51715;39.432;-77.518;2024-01-30T06:48:08;99981.43;;;8.40;33.93
65013;BME280;51715;39.432;-77.518;2024-01-30T06:50:36;99978.55;;;8.21;34.06
65013;BME280;51715;39.432;-77.518;2024-01-30T06:53:04;99979.98;;;8.07;33.91
65013;BME280;51715;39.432;-77.518;2024-01-30T06:55:32;99979.58;;;8.38;33.65
65013;BME280;51715;39.432;-77.518;2024-01-30T06:58:00;99977.81;;;8.67;33.47
65013;BME280;51715;39.432;-77.518;2024-01-30T07:00:28;99976.39;;;8.20;33.85
65013;BME280;51715;39.432;-77.518;2024-01-30T07:02:57;99981.62;;;8.22;33.90
65013;BME280;51715;39.432;-77.518;2024-01-30T07:05:25;99985.68;;;8.24;33.50
65013;BME280;51715;39.432;-77.518;2024-01-30T07:07:54;99988.39;;;8.08;33.32
65013;BME280;51715;39.432;-77.518;2024-01-30T07:10:24;99988.76;;;8.13;33.63
65013;BME280;51715;39.432;-77.518;2024-01-30T07:12:52;99989.15;;;8.07;33.49
65013;BME280;51715;39.432;-77.518;2024-01-30T07:15:20;99989.72;;;8.02;33.39
65013;BME280;51715;39.432;-77.518;2024-01-30T07:17:50;99989.04;;;8.03;33.82
65013;BME280;51715;39.432;-77.518;2024-01-30T07:20:18;99991.33;;;8.00;34.20
65013;BME280;51715;39.432;-77.518;2024-01-30T07:22:53;99992.47;;;8.27;34.56
65013;BME280;51715;39.432;-77.518;2024-01-30T07:25:21;99985.30;;;8.52;34.41
65013;BME280;51715;39.432;-77.518;2024-01-30T07:27:49;99980.40;;;8.50;34.28
65013;BME280;51715;39.432;-77.518;2024-01-30T07:30:17;99979.50;;;8.25;34.39
65013;BME280;51715;39.432;-77.518;2024-01-30T07:32:45;99985.56;;;8.41;33.89
65013;BME280;51715;39.432;-77.518;2024-01-30T07:35:14;99991.03;;;7.94;34.34
65013;BME280;51715;39.432;-77.518;2024-01-30T07:37:43;99992.89;;;8.23;34.32
65013;BME280;51715;39.432;-77.518;2024-01-30T07:40:11;99989.57;;;8.49;34.15
65013;BME280;51715;39.432;-77.518;2024-01-30T07:42:43;99991.31;;;8.25;34.19
65013;BME280;51715;39.432;-77.518;2024-01-30T07:45:11;99995.17;;;8.49;34.37
65013;BME280;51715;39.432;-77.518;2024-01-30T07:47:40;99998.66;;;8.21;34.33
65013;BME280;51715;39.432;-77.518;2024-01-30T07:50:08;100000.91;;;8.28;34.14
65013;BME280;51715;39.432;-77.518;2024-01-30T07:52:36;100003.05;;;8.09;34.35
65013;BME280;51715;39.432;-77.518;2024-01-30T07:55:05;100001.76;;;8.38;34.48
65013;BME280;51715;39.432;-77.518;2024-01-30T07:57:34;99997.06;;;8.32;34.19
65013;BME280;51715;39.432;-77.518;2024-01-30T08:00:03;99995.76;;;8.30;34.39
65013;BME280;51715;39.432;-77.518;2024-01-30T08:02:32;99996.64;;;7.85;34.07
65013;BME280;51715;39.432;-77.518;2024-01-30T08:05:00;100001.79;;;7.90;33.81
65013;BME280;51715;39.432;-77.518;2024-01-30T08:07:28;100005.57;;;8.54;33.89
65013;BME280;51715;39.432;-77.518;2024-01-30T08:09:56;100009.65;;;8.33;34.03
65013;BME280;51715;39.432;-77.518;2024-01-30T08:12:24;100008.94;;;8.34;34.10
65013;BME280;51715;39.432;-77.518;2024-01-30T08:14:55;100005.47;;;7.84;34.86
65013;BME280;51715;39.432;-77.518;2024-01-30T08:17:24;99999.84;;;7.72;34.95
65013;BME280;51715;39.432;-77.518;2024-01-30T08:19:53;100001.67;;;8.43;34.89
65013;BME280;51715;39.432;-77.518;2024-01-30T08:22:21;100006.13;;;8.02;34.53
65013;BME280;51715;39.432;-77.518;2024-01-30T08:24:49;100007.89;;;8.46;34.91
65013;BME280;51715;39.432;-77.518;2024-01-30T08:27:18;100012.91;;;8.39;34.53
65013;BME280;51715;39.432;-77.518;2024-01-30T08:29:47;100012.30;;;7.85;34.50
65013;BME280;51715;39.432;-77.518;2024-01-30T08:32:14;100005.60;;;8.35;34.63
65013;BME280;51715;39.432;-77.518;2024-01-30T08:34:44;99996.27;;;7.87;34.88
65013;BME280;51715;39.432;-77.518;2024-01-30T08:37:12;99991.11;;;8.27;35.24
65013;BME280;51715;39.432;-77.518;2024-01-30T08:39:40;99989.26;;;8.12;35.13
65013;BME280;51715;39.432;-77.518;2024-01-30T08:42:08;99985.69;;;7.92;35.72
65013;BME280;51715;39.432;-77.518;2024-01-30T08:44:36;99976.90;;;7.54;35.72
65013;BME280;51715;39.432;-77.518;2024-01-30T08:47:04;99974.02;;;8.05;35.71
65013;BME280;51715;39.432;-77.518;2024-01-30T08:49:34;99984.60;;;7.87;35.74
65013;BME280;51715;39.432;-77.518;2024-01-30T08:52:02;99994.44;;;7.46;36.68
65013;BME280;51715;39.432;-77.518;2024-01-30T08:54:30;99992.74;;;7.40;37.27
65013;BME280;51715;39.432;-77.518;2024-01-30T08:56:59;99990.20;;;7.69;36.53
65013;BME280;51715;39.432;-77.518;2024-01-30T08:59:28;99991.83;;;7.74;35.98
65013;BME280;51715;39.432;-77.518;2024-01-30T09:01:56;99995.46;;;7.85;35.79
65013;BME280;51715;39.432;-77.518;2024-01-30T09:04:24;99992.79;;;7.58;35.72
65013;BME280;51715;39.432;-77.518;2024-01-30T09:06:52;99990.80;;;7.66;35.90
65013;BME280;51715;39.432;-77.518;2024-01-30T09:09:21;99988.90;;;7.77;35.83
65013;BME280;51715;39.432;-77.518;2024-01-30T09:11:49;99978.23;;;7.76;35.90
65013;BME280;51715;39.432;-77.518;2024-01-30T09:14:18;99976.69;;;7.79;35.96
65013;BME280;51715;39.432;-77.518;2024-01-30T09:16:46;99975.65;;;7.95;35.90
65013;BME280;51715;39.432;-77.518;2024-01-30T09:19:14;99976.46;;;7.89;36.19
65013;BME280;51715;39.432;-77.518;2024-01-30T09:21:43;99976.86;;;7.91;36.32
65013;BME280;51715;39.432;-77.518;2024-01-30T09:24:11;99977.12;;;8.02;36.23
65013;BME280;51715;39.432;-77.518;2024-01-30T09:26:39;99982.16;;;7.58;36.36
65013;BME280;51715;39.432;-77.518;2024-01-30T09:29:07;99987.46;;;7.79;36.43
65013;BME280;51715;39.432;-77.518;2024-01-30T09:31:34;99989.21;;;7.66;36.59
65013;BME280;51715;39.432;-77.518;2024-01-30T09:34:02;99986.95;;;8.01;36.74
65013;BME280;51715;39.432;-77.518;2024-01-30T09:36:31;99989.76;;;8.03;36.62
65013;BME280;51715;39.432;-77.518;2024-01-30T09:39:01;99987.56;;;7.95;36.16
65013;BME280;51715;39.432;-77.518;2024-01-30T09:41:30;99994.37;;;7.97;36.16
65013;BME280;51715;39.432;-77.518;2024-01-30T09:44:00;99999.39;;;7.72;36.16
65013;BME280;51715;39.432;-77.518;2024-01-30T09:46:32;100001.08;;;8.02;36.27
65013;BME280;51715;39.432;-77.518;2024-01-30T09:49:03;100006.88;;;7.96;36.11
65013;BME280;51715;39.432;-77.518;2024-01-30T09:51:31;100005.96;;;7.98;36.34
65013;BME280;51715;39.432;-77.518;2024-01-30T09:54:02;100010.32;;;8.09;36.26
65013;BME280;51715;39.432;-77.518;2024-01-30T09:56:30;100008.21;;;8.24;36.16
65013;BME280;51715;39.432;-77.518;2024-01-30T09:58:58;100006.10;;;8.22;36.54
65013;BME280;51715;39.432;-77.518;2024-01-30T10:01:27;100005.37;;;7.93;37.00
65013;BME280;51715;39.432;-77.518;2024-01-30T10:03:56;100004.98;;;7.78;36.75
65013;BME280;51715;39.432;-77.518;2024-01-30T10:06:26;100010.26;;;8.09;36.59
65013;BME280;51715;39.432;-77.518;2024-01-30T10:08:57;100013.27;;;7.62;37.21
65013;BME280;51715;39.432;-77.518;2024-01-30T10:11:26;100018.43;;;7.67;37.24
65013;BME280;51715;39.432;-77.518;2024-01-30T10:13:55;100023.07;;;7.44;37.46
65013;BME280;51715;39.432;-77.518;2024-01-30T10:16:23;100024.53;;;7.39;37.46
65013;BME280;51715;39.432;-77.518;2024-01-30T10:18:51;100022.71;;;7.56;37.44
65013;BME280;51715;39.432;-77.518;2024-01-30T10:21:20;100019.78;;;7.44;37.40
65013;BME280;51715;39.432;-77.518;2024-01-30T10:23:50;100025.90;;;7.44;37.41
65013;BME280;51715;39.432;-77.518;2024-01-30T10:26:19;100026.41;;;7.59;37.27
65013;BME280;51715;39.432;-77.518;2024-01-30T10:28:47;100024.19;;;7.75;37.30
65013;BME280;51715;39.432;-77.518;2024-01-30T10:31:17;100020.43;;;7.77;37.64
65013;BME280;51715;39.432;-77.518;2024-01-30T10:33:46;100025.68;;;7.78;37.21
65013;BME280;51715;39.432;-77.518;2024-01-30T10:36:14;100027.76;;;7.14;38.28
65013;BME280;51715;39.432;-77.518;2024-01-30T10:38:43;100025.77;;;7.17;38.14
65013;BME280;51715;39.432;-77.518;2024-01-30T10:41:12;100025.55;;;7.47;37.76
65013;BME280;51715;39.432;-77.518;2024-01-30T10:43:42;100028.04;;;7.68;37.64
65013;BME280;51715;39.432;-77.518;2024-01-30T10:46:19;100022.23;;;7.80;37.34
65013;BME280;51715;39.432;-77.518;2024-01-30T10:48:56;100020.22;;;7.79;36.94
65013;BME280;51715;39.432;-77.518;2024-01-30T10:51:27;100025.20;;;7.42;37.12
65013;BME280;51715;39.432;-77.518;2024-01-30T10:53:57;100023.63;;;8.16;37.22
65013;BME280;51715;39.432;-77.518;2024-01-30T10:56:25;100019.65;;;6.97;37.81
65013;BME280;51715;39.432;-77.518;2024-01-30T10:58:54;100017.33;;;7.36;37.85
65013;BME280;51715;39.432;-77.518;2024-01-30T11:01:23;100025.65;;;7.64;37.67
65013;BME280;51715;39.432;-77.518;2024-01-30T11:03:52;100029.78;;;7.78;37.30
65013;BME280;51715;39.432;-77.518;2024-01-30T11:06:23;100034.86;;;7.44;37.61
65013;BME280;51715;39.432;-77.518;2024-01-30T11:09:01;100036.91;;;7.56;37.31
65013;BME280;51715;39.432;-77.518;2024-01-30T11:11:35;100036.98;;;7.67;37.12
65013;BME280;51715;39.432;-77.518;2024-01-30T11:14:15;100040.30;;;7.70;36.85
65013;BME280;51715;39.432;-77.518;2024-01-30T11:16:43;100049.81;;;7.54;37.12
65013;BME280;51715;39.432;-77.518;2024-01-30T11:19:12;100053.62;;;7.88;36.87
65013;BME280;51715;39.432;-77.518;2024-01-30T11:21:42;100052.32;;;7.93;37.01
65013;BME280;51715;39.432;-77.518;2024-01-30T11:24:10;100057.74;;;7.98;37.01
65013;BME280;51715;39.432;-77.518;2024-01-30T11:26:43;100062.37;;;7.63;36.80
65013;BME280;51715;39.432;-77.518;2024-01-30T11:29:14;100066.43;;;7.91;36.56
65013;BME280;51715;39.432;-77.518;2024-01-30T11:31:52;100066.32;;;8.03;36.67
65013;BME280;51715;39.432;-77.518;2024-01-30T11:34:22;100068.88;;;7.96;36.29
65013;BME280;51715;39.432;-77.518;2024-01-30T11:36:55;100069.45;;;7.96;36.21
65013;BME280;51715;39.432;-77.518;2024-01-30T11:39:25;100069.74;;;7.34;36.54
65013;BME280;51715;39.432;-77.518;2024-01-30T11:41:55;100069.75;;;7.66;36.61
65013;BME280;51715;39.432;-77.518;2024-01-30T11:44:23;100072.66;;;7.55;36.65
65013;BME280;51715;39.432;-77.518;2024-01-30T11:46:52;100075.37;;;7.81;36.59
65013;BME280;51715;39.432;-77.518;2024-01-30T11:49:20;100074.31;;;7.40;36.56
65013;BME280;51715;39.432;-77.518;2024-01-30T11:51:49;100076.92;;;7.66;36.79
65013;BME280;51715;39.432;-77.518;2024-01-30T11:54:16;100076.23;;;7.72;36.97
65013;BME280;51715;39.432;-77.518;2024-01-30T11:56:51;100081.23;;;7.78;36.78
65013;BME280;51715;39.432;-77.518;2024-01-30T11:59:19;100087.81;;;7.78;36.44
65013;BME280;51715;39.432;-77.518;2024-01-30T12:01:51;100093.56;;;6.77;38.18
65013;BME280;51715;39.432;-77.518;2024-01-30T12:04:20;100094.36;;;7.21;37.76
65013;BME280;51715;39.432;-77.518;2024-01-30T12:06:52;100095.07;;;7.25;37.52
65013;BME280;51715;39.432;-77.518;2024-01-30T12:09:20;100094.44;;;7.45;37.45
65013;BME280;51715;39.432;-77.518;2024-01-30T12:11:50;100097.00;;;7.53;36.78
65013;BME280;51715;39.432;-77.518;2024-01-30T12:14:19;100091.78;;;7.59;36.64
65013;BME280;51715;39.432;-77.518;2024-01-30T12:16:49;100095.54;;;7.50;36.93
65013;BME280;51715;39.432;-77.518;2024-01-30T12:19:22;100096.46;;;7.87;36.35
65013;BME280;51715;39.432;-77.518;2024-01-30T12:21:55;100102.48;;;7.71;36.36
65013;BME280;51715;39.432;-77.518;2024-01-30T12:24:24;100106.40;;;7.75;36.50
65013;BME280;51715;39.432;-77.518;2024-01-30T12:26:52;100102.00;;;7.73;36.65
65013;BME280;51715;39.432;-77.518;2024-01-30T12:29:24;100104.14;;;7.46;36.52
65013;BME280;51715;39.432;-77.518;2024-01-30T12:31:54;100105.22;;;7.88;36.34
65013;BME280;51715;39.432;-77.518;2024-01-30T12:34:22;100110.91;;;7.69;36.24
65013;BME280;51715;39.432;-77.518;2024-01-30T12:36:52;100119.65;;;7.67;36.56
65013;BME280;51715;39.432;-77.518;2024-01-30T12:39:20;100111.86;;;7.55;36.68
65013;BME280;51715;39.432;-77.518;2024-01-30T12:41:48;100108.61;;;7.87;36.78
65013;BME280;51715;39.432;-77.518;2024-01-30T12:44:16;100106.36;;;7.88;36.53
65013;BME280;51715;39.432;-77.518;2024-01-30T12:46:44;100105.11;;;8.02;36.21
65013;BME280;51715;39.432;-77.518;2024-01-30T12:49:15;100104.48;;;8.11;35.94
65013;BME280;51715;39.432;-77.518;2024-01-30T12:51:44;100107.81;;;7.89;35.97
65013;BME280;51715;39.432;-77.518;2024-01-30T12:54:14;100107.06;;;8.06;36.36
65013;BME280;51715;39.432;-77.518;2024-01-30T12:56:43;100108.01;;;8.15;36.68
65013;BME280;51715;39.432;-77.518;2024-01-30T12:59:11;100112.49;;;8.23;36.65
65013;BME280;51715;39.432;-77.518;2024-01-30T13:01:39;100114.99;;;7.82;36.37